Time;durP1;ratioP1;P1;durP2;ratioP2;P2;SDS_P1;SDS_P2;PMS_P1;PMS_P2;Temp;Humidity;BMP_temperature;BMP_pressure;BME280_temperature;BME280_humidity;BME280_pressure;Samples;Min_cycle;Max_cycle;Signal;HPM_P1;HPM_P2
2022/06/26 00:02:17;;;;;;;;;;;;;;;;;;4962756;28;19929;-58
2022/06/26 00:04:45;;;;;;;;;;;;;;;;;;4970737;28;19925;-59
2022/06/26 00:07:13;;;;;;;;;;;;;;;;;;4957879;28;19917;-59
2022/06/26 00:09:42;;;;;;;;;;;;;;;;;;4967325;28;19921;-58
2022/06/26 00:12:07;;;;;;;;;;;;;;;;;;4960782;28;20467;-58
2022/06/26 00:14:35;;;;;;;;;;;;;;;;;;4964249;28;19926;-59
2022/06/26 00:17:02;;;;;;;;;;;;;;;;;;4971160;28;19931;-59
2022/06/26 00:19:27;;;;;;;;;;;;;;;;;;4970155;28;19922;-60
2022/06/26 00:21:55;;;;;;;;;;;;;;;;;;4964220;28;20405;-59
2022/06/26 00:24:21;;;;;;;;;;;;;;;;;;4967613;28;19933;-58
2022/06/26 00:26:46;;;;;;;;;;;;;;;;;;4967291;28;19924;-58
2022/06/26 00:29:11;;;;;;;;;;;;;;;;;;4962085;28;20650;-59
2022/06/26 00:31:37;;;;;;;;;;;;;;;;;;4963860;28;19926;-58
2022/06/26 00:34:03;;;;;;;;;;;;;;;;;;4966114;28;21873;-58
2022/06/26 00:36:28;;;;;;;;;;;;;;;;;;4967679;28;19918;-59
2022/06/26 00:38:54;;;;;;;;;;;;;;;;;;4961787;28;19921;-59
2022/06/26 00:41:21;;;;;;;;;;;;;;;;;;4960392;28;19922;-58
2022/06/26 00:43:47;;;;;;;;;;;;;;;;;;4963115;28;20005;-59
2022/06/26 00:46:12;;;;;;;;;;;;;;;;;;4965697;28;19922;-58
2022/06/26 00:48:40;;;;;;;;;;;;;;;;;;4968008;28;20540;-58
2022/06/26 00:51:05;;;;;;;;;;;;;;;;;;4971168;28;19961;-58
2022/06/26 00:53:35;;;;;;;;;;;;;;;;;;4975678;28;20001;-58
2022/06/26 00:56:02;;;;;;;;;;;;;;;;;;4964605;28;19921;-58
2022/06/26 00:58:30;;;;;;;;;;;;;;;;;;4962202;28;19975;-57
2022/06/26 01:00:55;;;;;;;;;;;;;;;;;;4963205;28;19930;-58
2022/06/26 01:03:21;;;;;;;;;;;;;;;;;;4960531;28;19951;-58
2022/06/26 01:05:47;;;;;;;;;;;;;;;;;;4961980;28;19926;-58
2022/06/26 01:08:15;;;;;;;;;;;;;;;;;;4965608;28;20055;-57
2022/06/26 01:10:40;;;;;;;;;;;;;;;;;;4936309;28;19952;-58
2022/06/26 01:13:08;;;;;;;;;;;;;;;;;;4965222;28;20369;-60
2022/06/26 01:15:36;;;;;;;;;;;;;;;;;;4958321;28;20557;-59
2022/06/26 01:18:03;;;;;;;;;;;;;;;;;;4962091;28;19925;-59
2022/06/26 01:20:31;;;;;;;;;;;;;;;;;;4969623;28;19932;-59
2022/06/26 01:23:02;;;;;;;;;;;;;;;;;;4948208;28;19922;-60
2022/06/26 01:25:30;;;;;;;;;;;;;;;;;;4962667;28;19933;-59
2022/06/26 01:27:55;;;;;;;;;;;;;;;;;;4966439;28;19918;-59
2022/06/26 01:30:23;;;;;;;;;;;;;;;;;;4970652;28;19928;-59
2022/06/26 01:32:48;;;;;;;;;;;;;;;;;;4963239;28;19939;-59
2022/06/26 01:35:16;;;;;;;;;;;;;;;;;;4970387;28;20044;-58
2022/06/26 01:37:42;;;;;;;;;;;;;;;;;;4968097;28;20436;-59
2022/06/26 01:40:07;;;;;;;;;;;;;;;;;;4969347;28;21903;-58
2022/06/26 01:42:32;;;;;;;;;;;;;;;;;;4969724;28;20007;-58
2022/06/26 01:44:58;;;;;;;;;;;;;;;;;;4966216;28;19932;-59
2022/06/26 01:47:25;;;;;;;;;;;;;;;;;;4960472;28;19995;-60
2022/06/26 01:49:51;;;;;;;;;;;;;;;;;;4970542;28;19921;-60
2022/06/26 01:52:16;;;;;;;;;;;;;;;;;;4971676;28;20540;-59
2022/06/26 01:54:41;;;;;;;;;;;;;;;;;;4968157;28;20039;-59
2022/06/26 01:57:09;;;;;;;;;;;;;;;;;;4967990;28;21396;-59
2022/06/26 01:59:34;;;;;;;;;;;;;;;;;;4969490;28;19928;-59
2022/06/26 02:01:59;;;;;;;;;;;;;;;;;;4964528;28;19922;-59
2022/06/26 02:04:25;;;;;;;;;;;;;;;;;;4967455;28;19921;-59
2022/06/26 02:06:50;;;;;;;;;;;;;;;;;;4960336;28;20019;-58
2022/06/26 02:14:46;;;;;;;;;;;;;;;;;;4972516;28;19928;-58
2022/06/26 02:17:11;;;;;;;;;;;;;;;;;;4976000;28;20048;-59
2022/06/26 02:19:37;;;;;;;;;;;;;;;;;;4972337;28;19929;-59
2022/06/26 02:22:02;;;;;;;;;;;;;;;;;;4971970;28;20880;-58
2022/06/26 02:24:28;;;;;;;;;;;;;;;;;;4972773;28;19969;-59
2022/06/26 02:26:55;;;;;;;;;;;;;;;;;;4973305;28;19922;-59
2022/06/26 02:29:21;;;;;;;;;;;;;;;;;;4973559;28;19922;-59
2022/06/26 02:31:51;;;;;;;;;;;;;;;;;;4969741;28;19922;-58
2022/06/26 02:34:21;;;;;;;;;;;;;;;;;;4973090;28;19921;-58
2022/06/26 02:36:46;;;;;;;;;;;;;;;;;;4972493;28;19922;-60
2022/06/26 02:39:14;;;;;;;;;;;;;;;;;;4962922;28;20461;-59
2022/06/26 02:41:42;;;;;;;;;;;;;;;;;;4959351;28;20584;-59
2022/06/26 02:44:07;;;;;;;;;;;;;;;;;;4962424;28;19930;-58
2022/06/26 02:46:33;;;;;;;;;;;;;;;;;;4945059;28;19918;-59
2022/06/26 02:49:01;;;;;;;;;;;;;;;;;;4951976;28;20052;-58
2022/06/26 02:51:26;;;;;;;;;;;;;;;;;;4937935;28;19926;-58
2022/06/26 02:53:56;;;;;;;;;;;;;;;;;;4952998;28;19922;-58
2022/06/26 02:56:21;;;;;;;;;;;;;;;;;;4944300;28;19944;-57
2022/06/26 02:58:46;;;;;;;;;;;;;;;;;;4945703;28;20866;-57
2022/06/26 03:01:12;;;;;;;;;;;;;;;;;;4952369;28;19966;-58
2022/06/26 03:03:38;;;;;;;;;;;;;;;;;;4946997;28;19969;-59
2022/06/26 03:06:04;;;;;;;;;;;;;;;;;;4949789;28;19930;-59
2022/06/26 03:08:31;;;;;;;;;;;;;;;;;;4945821;28;20005;-59
2022/06/26 03:10:59;;;;;;;;;;;;;;;;;;4944859;28;19921;-59
2022/06/26 03:13:25;;;;;;;;;;;;;;;;;;4947658;28;20017;-59
2022/06/26 03:15:52;;;;;;;;;;;;;;;;;;4944462;28;19929;-60
2022/06/26 03:18:20;;;;;;;;;;;;;;;;;;4949493;28;19922;-59
2022/06/26 03:20:45;;;;;;;;;;;;;;;;;;4947950;28;19942;-58
2022/06/26 03:23:11;;;;;;;;;;;;;;;;;;4953402;28;19964;-58
2022/06/26 03:25:36;;;;;;;;;;;;;;;;;;4948720;28;19926;-59
2022/06/26 03:28:02;;;;;;;;;;;;;;;;;;4943938;28;21063;-59
2022/06/26 03:30:29;;;;;;;;;;;;;;;;;;4932889;28;19926;-59
2022/06/26 03:32:58;;;;;;;;;;;;;;;;;;4938550;28;19937;-59
2022/06/26 03:35:23;;;;;;;;;;;;;;;;;;4943664;28;20046;-59
2022/06/26 03:37:49;;;;;;;;;;;;;;;;;;4942724;28;20738;-60
2022/06/26 03:40:14;;;;;;;;;;;;;;;;;;4944463;28;19929;-58
2022/06/26 03:42:39;;;;;;;;;;;;;;;;;;4947264;28;19930;-57
2022/06/26 03:45:05;;;;;;;;;;;;;;;;;;4955931;28;20502;-60
2022/06/26 03:47:30;;;;;;;;;;;;;;;;;;4969516;28;20024;-60
2022/06/26 03:49:55;;;;;;;;;;;;;;;;;;4962767;28;20531;-59
2022/06/26 03:52:21;;;;;;;;;;;;;;;;;;4970702;28;19921;-59
2022/06/26 03:54:49;;;;;;;;;;;;;;;;;;4966672;28;20271;-59
2022/06/26 03:57:15;;;;;;;;;;;;;;;;;;4963387;28;19929;-62
2022/06/26 03:59:43;;;;;;;;;;;;;;;;;;4968632;28;20393;-59
2022/06/26 04:02:11;;;;;;;;;;;;;;;;;;4964594;28;20313;-60
2022/06/26 04:04:39;;;;;;;;;;;;;;;;;;4963542;28;19921;-60
2022/06/26 04:07:12;;;;;;;;;;;;;;;;;;4964436;28;19917;-59
2022/06/26 04:09:39;;;;;;;;;;;;;;;;;;4964885;28;19925;-55
2022/06/26 04:12:05;;;;;;;;;;;;;;;;;;4963875;28;19925;-58
2022/06/26 04:14:30;;;;;;;;;;;;;;;;;;4969686;28;19921;-60
2022/06/26 04:16:58;;;;;;;;;;;;;;;;;;4962837;28;20016;-58
2022/06/26 04:19:26;;;;;;;;;;;;;;;;;;4964941;28;19917;-60
2022/06/26 04:21:54;;;;;;;;;;;;;;;;;;4968075;28;20460;-59
2022/06/26 04:24:22;;;;;;;;;;;;;;;;;;4968530;28;19937;-60
2022/06/26 04:26:49;;;;;;;;;;;;;;;;;;4961950;28;19960;-59
2022/06/26 04:29:17;;;;;;;;;;;;;;;;;;4968024;28;19933;-60
2022/06/26 04:31:42;;;;;;;;;;;;;;;;;;4964703;28;19929;-60
2022/06/26 04:34:10;;;;;;;;;;;;;;;;;;4961383;28;19941;-60
2022/06/26 04:36:38;;;;;;;;;;;;;;;;;;4961295;28;20897;-60
2022/06/26 04:39:03;;;;;;;;;;;;;;;;;;4963692;28;19941;-59
2022/06/26 04:41:31;;;;;;;;;;;;;;;;;;4945756;28;20059;-61
2022/06/26 04:43:59;;;;;;;;;;;;;;;;;;4961779;28;19926;-60
2022/06/26 04:46:27;;;;;;;;;;;;;;;;;;4965796;28;19921;-61
2022/06/26 04:48:52;;;;;;;;;;;;;;;;;;4965490;28;19925;-61
2022/06/26 04:51:18;;;;;;;;;;;;;;;;;;4961939;28;19952;-61
2022/06/26 04:53:43;;;;;;;;;;;;;;;;;;4958708;28;19929;-60
2022/06/26 04:56:08;;;;;;;;;;;;;;;;;;4968727;28;19922;-61
2022/06/26 04:58:33;;;;;;;;;;;;;;;;;;4960641;28;19958;-61
2022/06/26 05:01:02;;;;;;;;;;;;;;;;;;4960401;28;20074;-60
2022/06/26 05:03:27;;;;;;;;;;;;;;;;;;4967482;28;19921;-61
2022/06/26 05:05:53;;;;;;;;;;;;;;;;;;4955442;28;19969;-62
2022/06/26 05:08:18;;;;;;;;;;;;;;;;;;4945945;28;20016;-59
2022/06/26 05:10:43;;;;;;;;;;;;;;;;;;4948568;28;19924;-61
2022/06/26 05:13:08;;;;;;;;;;;;;;;;;;4964964;28;19926;-61
2022/06/26 05:15:33;;;;;;;;;;;;;;;;;;4956095;28;19972;-60
2022/06/26 05:18:03;;;;;;;;;;;;;;;;;;4972466;28;19921;-61
2022/06/26 05:20:31;;;;;;;;;;;;;;;;;;4971961;28;22004;-59
2022/06/26 05:22:56;;;;;;;;;;;;;;;;;;4970541;28;19933;-61
2022/06/26 05:25:24;;;;;;;;;;;;;;;;;;4969403;28;19921;-62
2022/06/26 05:27:52;;;;;;;;;;;;;;;;;;4972408;28;19922;-61
2022/06/26 05:30:17;;;;;;;;;;;;;;;;;;4976426;28;20872;-60
2022/06/26 05:32:43;;;;;;;;;;;;;;;;;;4975086;28;19926;-61
2022/06/26 05:35:08;;;;;;;;;;;;;;;;;;4973986;28;19918;-62
2022/06/26 05:37:34;;;;;;;;;;;;;;;;;;4976559;28;19922;-61
2022/06/26 05:40:03;;;;;;;;;;;;;;;;;;4972893;28;19917;-61
2022/06/26 05:42:28;;;;;;;;;;;;;;;;;;4969027;28;19921;-62
2022/06/26 05:44:54;;;;;;;;;;;;;;;;;;4964172;28;20115;-62
2022/06/26 05:47:19;;;;;;;;;;;;;;;;;;4972314;28;19922;-62
2022/06/26 05:49:45;;;;;;;;;;;;;;;;;;4973781;28;20253;-61
2022/06/26 05:52:12;;;;;;;;;;;;;;;;;;4974623;28;19917;-62
2022/06/26 05:54:38;;;;;;;;;;;;;;;;;;4958647;28;19929;-62
2022/06/26 05:57:03;;;;;;;;;;;;;;;;;;4964919;28;19917;-61
2022/06/26 05:59:28;;;;;;;;;;;;;;;;;;4966248;28;19926;-62
2022/06/26 06:01:56;;;;;;;;;;;;;;;;;;4973695;28;20386;-63
2022/06/26 06:04:22;;;;;;;;;;;;;;;;;;4964899;28;19975;-62
2022/06/26 06:06:50;;;;;;;;;;;;;;;;;;4949008;28;19922;-61
2022/06/26 06:09:15;;;;;;;;;;;;;;;;;;4963963;28;19925;-62
2022/06/26 06:11:42;;;;;;;;;;;;;;;;;;4953970;28;20001;-61
2022/06/26 06:14:10;;;;;;;;;;;;;;;;;;4972664;28;19945;-60
2022/06/26 06:16:36;;;;;;;;;;;;;;;;;;4975236;28;19985;-60
2022/06/26 06:19:02;;;;;;;;;;;;;;;;;;4975846;28;19921;-62
2022/06/26 06:21:30;;;;;;;;;;;;;;;;;;4974294;28;20906;-62
2022/06/26 06:23:55;;;;;;;;;;;;;;;;;;4969306;28;19917;-60
2022/06/26 06:26:20;;;;;;;;;;;;;;;;;;4969293;28;19972;-63
2022/06/26 06:28:49;;;;;;;;;;;;;;;;;;4971300;28;20804;-63
2022/06/26 06:31:14;;;;;;;;;;;;;;;;;;4969755;28;19921;-62
2022/06/26 06:33:39;;;;;;;;;;;;;;;;;;4974490;28;20815;-62
2022/06/26 06:36:08;;;;;;;;;;;;;;;;;;4967214;28;22075;-61
2022/06/26 06:38:36;;;;;;;;;;;;;;;;;;4965386;28;20843;-63
2022/06/26 06:41:01;;;;;;;;;;;;;;;;;;4963278;28;20052;-61
2022/06/26 06:43:27;;;;;;;;;;;;;;;;;;4955466;28;19928;-63
2022/06/26 06:45:53;;;;;;;;;;;;;;;;;;4970617;28;20004;-59
2022/06/26 06:48:20;;;;;;;;;;;;;;;;;;4972647;28;19926;-60
2022/06/26 06:50:45;;;;;;;;;;;;;;;;;;4977794;28;20056;-61
2022/06/26 06:53:11;;;;;;;;;;;;;;;;;;4974727;28;19922;-62
2022/06/26 06:55:36;;;;;;;;;;;;;;;;;;4970575;28;20566;-61
2022/06/26 06:58:02;;;;;;;;;;;;;;;;;;4972199;28;19926;-62
2022/06/26 07:00:27;;;;;;;;;;;;;;;;;;4967711;28;20173;-61
2022/06/26 07:02:52;;;;;;;;;;;;;;;;;;4971354;28;20017;-62
2022/06/26 07:05:19;;;;;;;;;;;;;;;;;;4973364;28;19921;-60
2022/06/26 07:07:46;;;;;;;;;;;;;;;;;;4971877;28;19922;-60
2022/06/26 07:10:14;;;;;;;;;;;;;;;;;;4970507;28;20903;-59
2022/06/26 07:12:42;;;;;;;;;;;;;;;;;;4968758;28;21883;-59
2022/06/26 07:15:08;;;;;;;;;;;;;;;;;;4971893;28;19929;-61
2022/06/26 07:17:35;;;;;;;;;;;;;;;;;;4971342;28;19917;-60
2022/06/26 07:20:12;;;;;;;;;;;;;;;;;;4974582;28;19932;-60
2022/06/26 07:22:38;;;;;;;;;;;;;;;;;;4975111;28;19925;-60
2022/06/26 07:25:03;;;;;;;;;;;;;;;;;;4968718;28;21578;-59
2022/06/26 07:27:31;;;;;;;;;;;;;;;;;;4972261;28;20436;-59
2022/06/26 07:29:56;;;;;;;;;;;;;;;;;;4963514;28;19924;-59
2022/06/26 07:32:21;;;;;;;;;;;;;;;;;;4969975;28;19922;-59
2022/06/26 07:34:51;;;;;;;;;;;;;;;;;;4972367;28;19957;-60
2022/06/26 07:37:17;;;;;;;;;;;;;;;;;;4958511;28;21817;-61
2022/06/26 07:39:44;;;;;;;;;;;;;;;;;;4971684;28;19926;-60
2022/06/26 07:42:26;;;;;;;;;;;;;;;;;;4968108;28;19922;-60
2022/06/26 07:44:51;;;;;;;;;;;;;;;;;;4963366;28;19933;-61
2022/06/26 07:47:16;;;;;;;;;;;;;;;;;;4967085;28;19976;-59
2022/06/26 07:49:42;;;;;;;;;;;;;;;;;;4967994;28;19926;-60
2022/06/26 07:52:07;;;;;;;;;;;;;;;;;;4970806;28;20012;-60
2022/06/26 07:54:33;;;;;;;;;;;;;;;;;;4965493;28;19957;-60
2022/06/26 07:57:01;;;;;;;;;;;;;;;;;;4950913;28;19918;-60
2022/06/26 07:59:26;;;;;;;;;;;;;;;;;;4966740;28;20032;-60
2022/06/26 08:01:53;;;;;;;;;;;;;;;;;;4965964;28;19925;-60
2022/06/26 08:04:19;;;;;;;;;;;;;;;;;;4969092;28;19969;-59
2022/06/26 08:06:44;;;;;;;;;;;;;;;;;;4972299;28;19921;-61
2022/06/26 08:09:11;;;;;;;;;;;;;;;;;;4962318;28;20692;-61
2022/06/26 08:11:39;;;;;;;;;;;;;;;;;;4965892;28;20052;-58
2022/06/26 08:14:07;;;;;;;;;;;;;;;;;;4963645;28;20363;-61
2022/06/26 08:16:32;;;;;;;;;;;;;;;;;;4963210;28;22066;-59
2022/06/26 08:18:58;;;;;;;;;;;;;;;;;;4966582;28;19922;-60
2022/06/26 08:24:07;;;;;;;;;;;;;;;;;;4973275;28;19918;-59
2022/06/26 08:26:32;;;;;;;;;;;;;;;;;;4967312;28;19926;-60
2022/06/26 08:28:58;;;;;;;;;;;;;;;;;;4974728;28;19948;-60
2022/06/26 08:31:23;;;;;;;;;;;;;;;;;;4952692;28;19922;-59
2022/06/26 08:33:49;;;;;;;;;;;;;;;;;;4966883;28;19921;-60
2022/06/26 08:36:15;;;;;;;;;;;;;;;;;;4965121;28;19937;-60
2022/06/26 08:38:42;;;;;;;;;;;;;;;;;;4950247;28;20065;-60
2022/06/26 08:41:07;;;;;;;;;;;;;;;;;;4969811;28;20971;-59
2022/06/26 08:43:33;;;;;;;;;;;;;;;;;;4970247;28;19933;-60
2022/06/26 08:46:00;;;;;;;;;;;;;;;;;;4970677;28;20025;-60
2022/06/26 08:48:27;;;;;;;;;;;;;;;;;;4970504;28;19928;-60
2022/06/26 08:50:52;;;;;;;;;;;;;;;;;;4976108;28;21954;-60
2022/06/26 08:53:17;;;;;;;;;;;;;;;;;;4973278;28;19949;-62
2022/06/26 08:55:45;;;;;;;;;;;;;;;;;;4968663;28;19925;-59
2022/06/26 08:58:11;;;;;;;;;;;;;;;;;;4971469;28;19926;-62
2022/06/26 09:00:36;;;;;;;;;;;;;;;;;;4969291;28;20508;-62
2022/06/26 09:03:04;;;;;;;;;;;;;;;;;;4965563;28;19921;-61
2022/06/26 09:05:30;;;;;;;;;;;;;;;;;;4968573;28;20437;-60
2022/06/26 09:07:58;;;;;;;;;;;;;;;;;;4969258;28;20027;-60
2022/06/26 09:10:23;;;;;;;;;;;;;;;;;;4952654;28;19921;-59
2022/06/26 09:12:51;;;;;;;;;;;;;;;;;;4969035;28;19918;-60
2022/06/26 09:15:16;;;;;;;;;;;;;;;;;;4969168;28;20019;-60
2022/06/26 09:17:44;;;;;;;;;;;;;;;;;;4964747;28;19933;-61
2022/06/26 09:20:09;;;;;;;;;;;;;;;;;;4969278;28;19914;-60
2022/06/26 09:22:37;;;;;;;;;;;;;;;;;;4974022;28;19925;-59
2022/06/26 09:25:03;;;;;;;;;;;;;;;;;;4971237;28;21884;-60
2022/06/26 09:27:28;;;;;;;;;;;;;;;;;;4970043;28;19963;-60
2022/06/26 09:29:56;;;;;;;;;;;;;;;;;;4966009;28;20321;-61
2022/06/26 09:32:22;;;;;;;;;;;;;;;;;;4967465;28;20893;-60
2022/06/26 09:34:47;;;;;;;;;;;;;;;;;;4973850;28;19928;-60
2022/06/26 09:37:15;;;;;;;;;;;;;;;;;;4966554;28;19917;-59
2022/06/26 09:39:40;;;;;;;;;;;;;;;;;;4970391;28;19918;-62
2022/06/26 09:42:09;;;;;;;;;;;;;;;;;;4973202;28;20377;-61
2022/06/26 09:44:34;;;;;;;;;;;;;;;;;;4965681;28;19929;-61
2022/06/26 09:47:02;;;;;;;;;;;;;;;;;;4971020;28;19956;-59
2022/06/26 09:49:27;;;;;;;;;;;;;;;;;;4975196;28;19926;-60
2022/06/26 09:51:53;;;;;;;;;;;;;;;;;;4978893;28;19941;-60
2022/06/26 09:54:18;;;;;;;;;;;;;;;;;;4971038;28;20497;-60
2022/06/26 09:56:46;;;;;;;;;;;;;;;;;;4949919;28;20016;-60
2022/06/26 09:59:11;;;;;;;;;;;;;;;;;;4965651;28;20074;-60
2022/06/26 10:07:05;;;;;;;;;;;;;;;;;;4978318;28;19924;-60
2022/06/26 10:09:30;;;;;;;;;;;;;;;;;;4958748;28;19961;-60
2022/06/26 10:11:58;;;;;;;;;;;;;;;;;;4979164;28;19968;-60
2022/06/26 10:14:29;;;;;;;;;;;;;;;;;;4992296;28;20036;-61
2022/06/26 10:16:54;;;;;;;;;;;;;;;;;;4961379;28;20499;-58
2022/06/26 10:19:19;;;;;;;;;;;;;;;;;;4975670;28;19968;-60
2022/06/26 10:21:44;;;;;;;;;;;;;;;;;;4969110;28;19924;-60
2022/06/26 10:24:10;;;;;;;;;;;;;;;;;;4973144;28;20850;-60
2022/06/26 10:26:36;;;;;;;;;;;;;;;;;;4978775;28;19917;-60
2022/06/26 10:29:04;;;;;;;;;;;;;;;;;;4969525;28;20476;-59
2022/06/26 10:31:29;;;;;;;;;;;;;;;;;;4970677;28;20040;-58
2022/06/26 10:33:57;;;;;;;;;;;;;;;;;;4967337;28;19934;-60
2022/06/26 10:36:22;;;;;;;;;;;;;;;;;;4973457;28;20014;-59
2022/06/26 10:38:51;;;;;;;;;;;;;;;;;;4972777;28;19921;-60
2022/06/26 10:44:03;;;;;;;;;;;;;;;;;;4966716;28;19932;-60
2022/06/26 10:46:30;;;;;;;;;;;;;;;;;;4948918;28;19917;-59
2022/06/26 10:48:58;;;;;;;;;;;;;;;;;;4969356;28;19921;-61
2022/06/26 10:51:24;;;;;;;;;;;;;;;;;;4969900;28;19925;-59
2022/06/26 10:53:51;;;;;;;;;;;;;;;;;;4963000;28;19926;-60
2022/06/26 10:56:18;;;;;;;;;;;;;;;;;;4976048;28;19926;-60
2022/06/26 10:58:48;;;;;;;;;;;;;;;;;;4971686;28;19921;-61
2022/06/26 11:01:14;;;;;;;;;;;;;;;;;;4972021;28;19944;-61
2022/06/26 11:03:39;;;;;;;;;;;;;;;;;;4966562;28;20436;-60
2022/06/26 11:06:04;;;;;;;;;;;;;;;;;;4964004;28;19921;-61
2022/06/26 11:08:32;;;;;;;;;;;;;;;;;;4951900;28;19940;-61
2022/06/26 11:10:58;;;;;;;;;;;;;;;;;;4971149;28;19940;-61
2022/06/26 11:13:23;;;;;;;;;;;;;;;;;;4969076;28;19926;-61
2022/06/26 11:15:49;;;;;;;;;;;;;;;;;;4967530;28;19948;-59
2022/06/26 11:18:16;;;;;;;;;;;;;;;;;;4951045;28;20007;-59
2022/06/26 11:20:49;;;;;;;;;;;;;;;;;;4966491;28;19929;-60
2022/06/26 11:23:16;;;;;;;;;;;;;;;;;;4966878;28;19926;-62
2022/06/26 11:25:41;;;;;;;;;;;;;;;;;;4958021;28;19928;-61
2022/06/26 11:28:08;;;;;;;;;;;;;;;;;;4960253;28;20576;-59
2022/06/26 11:30:34;;;;;;;;;;;;;;;;;;4972016;28;19945;-60
2022/06/26 11:32:59;;;;;;;;;;;;;;;;;;4975356;28;20588;-61
2022/06/26 11:35:29;;;;;;;;;;;;;;;;;;4957856;28;20672;-61
2022/06/26 11:37:54;;;;;;;;;;;;;;;;;;4965206;28;19941;-61
2022/06/26 11:40:22;;;;;;;;;;;;;;;;;;4964874;28;19965;-60
2022/06/26 11:42:48;;;;;;;;;;;;;;;;;;4986109;28;20052;-61
2022/06/26 11:45:16;;;;;;;;;;;;;;;;;;4969308;28;20017;-61
2022/06/26 11:47:41;;;;;;;;;;;;;;;;;;4965478;28;20994;-62
2022/06/26 11:50:09;;;;;;;;;;;;;;;;;;4964128;28;20001;-62
2022/06/26 11:52:35;;;;;;;;;;;;;;;;;;4965981;28;19930;-62
2022/06/26 11:55:00;;;;;;;;;;;;;;;;;;4965494;28;19933;-60
2022/06/26 11:57:28;;;;;;;;;;;;;;;;;;4969821;28;20289;-61
2022/06/26 11:59:57;;;;;;;;;;;;;;;;;;4965004;28;19957;-59
2022/06/26 12:02:22;;;;;;;;;;;;;;;;;;4969750;28;19932;-59
2022/06/26 12:04:47;;;;;;;;;;;;;;;;;;4964889;28;19924;-60
2022/06/26 12:07:14;;;;;;;;;;;;;;;;;;4964869;28;20441;-61
2022/06/26 12:09:40;;;;;;;;;;;;;;;;;;4963507;28;20310;-59
2022/06/26 12:12:05;;;;;;;;;;;;;;;;;;4967479;28;19950;-60
2022/06/26 12:14:31;;;;;;;;;;;;;;;;;;4971272;28;19972;-60
2022/06/26 12:16:58;;;;;;;;;;;;;;;;;;4973814;28;20369;-60
2022/06/26 12:19:26;;;;;;;;;;;;;;;;;;4965752;28;19922;-60
2022/06/26 12:21:52;;;;;;;;;;;;;;;;;;4966412;28;20036;-59
2022/06/26 12:24:20;;;;;;;;;;;;;;;;;;4964610;28;20010;-59
2022/06/26 12:26:45;;;;;;;;;;;;;;;;;;4970652;28;20399;-59
2022/06/26 12:29:11;;;;;;;;;;;;;;;;;;4965888;28;19921;-60
2022/06/26 12:31:36;;;;;;;;;;;;;;;;;;4966241;28;19940;-61
2022/06/26 12:34:04;;;;;;;;;;;;;;;;;;4967323;28;19928;-61
2022/06/26 12:36:32;;;;;;;;;;;;;;;;;;4964907;28;21920;-61
2022/06/26 12:38:57;;;;;;;;;;;;;;;;;;4968292;28;19926;-61
2022/06/26 12:41:24;;;;;;;;;;;;;;;;;;4958017;28;19961;-61
2022/06/26 12:43:50;;;;;;;;;;;;;;;;;;4963638;28;19922;-61
2022/06/26 12:46:17;;;;;;;;;;;;;;;;;;4964724;28;19943;-60
2022/06/26 12:48:43;;;;;;;;;;;;;;;;;;4957046;28;19922;-60
2022/06/26 12:51:08;;;;;;;;;;;;;;;;;;4964460;28;21881;-59
2022/06/26 12:53:36;;;;;;;;;;;;;;;;;;4965684;28;19988;-59
2022/06/26 12:56:01;;;;;;;;;;;;;;;;;;4972608;28;20429;-59
2022/06/26 12:58:26;;;;;;;;;;;;;;;;;;4975351;28;20008;-59
2022/06/26 13:00:51;;;;;;;;;;;;;;;;;;4967788;28;19917;-60
2022/06/26 13:03:17;;;;;;;;;;;;;;;;;;4966231;28;19921;-61
2022/06/26 13:05:42;;;;;;;;;;;;;;;;;;4966028;28;19933;-60
2022/06/26 13:08:08;;;;;;;;;;;;;;;;;;4964777;28;19917;-58
2022/06/26 13:10:34;;;;;;;;;;;;;;;;;;4970311;28;19921;-60
2022/06/26 13:13:01;;;;;;;;;;;;;;;;;;4967157;28;19992;-59
2022/06/26 13:15:29;;;;;;;;;;;;;;;;;;4968226;28;19965;-61
2022/06/26 13:17:55;;;;;;;;;;;;;;;;;;4962217;28;19921;-62
2022/06/26 13:20:20;;;;;;;;;;;;;;;;;;4964178;28;19922;-59
2022/06/26 13:22:46;;;;;;;;;;;;;;;;;;4963682;28;19933;-60
2022/06/26 13:25:11;;;;;;;;;;;;;;;;;;4975592;28;19918;-60
2022/06/26 13:27:39;;;;;;;;;;;;;;;;;;4978455;28;20011;-60
2022/06/26 13:30:05;;;;;;;;;;;;;;;;;;4975579;28;20021;-60
2022/06/26 13:32:32;;;;;;;;;;;;;;;;;;4965015;28;19922;-59
2022/06/26 13:34:57;;;;;;;;;;;;;;;;;;4972271;28;20068;-59
2022/06/26 13:37:23;;;;;;;;;;;;;;;;;;4977382;28;19923;-59
2022/06/26 13:39:49;;;;;;;;;;;;;;;;;;4976175;28;19929;-59
2022/06/26 13:42:15;;;;;;;;;;;;;;;;;;4979364;28;19918;-60
2022/06/26 13:44:40;;;;;;;;;;;;;;;;;;4975152;28;19937;-60
2022/06/26 13:47:08;;;;;;;;;;;;;;;;;;4979275;28;21199;-60
2022/06/26 13:49:33;;;;;;;;;;;;;;;;;;4977917;28;19926;-60
2022/06/26 13:51:58;;;;;;;;;;;;;;;;;;4977689;28;20000;-60
2022/06/26 13:54:24;;;;;;;;;;;;;;;;;;4977095;28;19932;-59
2022/06/26 13:56:50;;;;;;;;;;;;;;;;;;4975807;28;19929;-60
2022/06/26 13:59:18;;;;;;;;;;;;;;;;;;4972202;28;19972;-59
2022/06/26 14:01:43;;;;;;;;;;;;;;;;;;4956473;28;20000;-58
2022/06/26 14:04:09;;;;;;;;;;;;;;;;;;4977082;28;19928;-58
2022/06/26 14:06:34;;;;;;;;;;;;;;;;;;4974801;28;19922;-59
2022/06/26 14:08:59;;;;;;;;;;;;;;;;;;4974809;28;19929;-58
2022/06/26 14:11:25;;;;;;;;;;;;;;;;;;4975098;28;19953;-58
2022/06/26 14:13:53;;;;;;;;;;;;;;;;;;4974761;28;19921;-59
2022/06/26 14:16:18;;;;;;;;;;;;;;;;;;4975503;28;19956;-59
2022/06/26 14:18:46;;;;;;;;;;;;;;;;;;4971305;28;19921;-59
2022/06/26 14:21:12;;;;;;;;;;;;;;;;;;4977878;28;21808;-59
2022/06/26 14:26:24;;;;;;;;;;;;;;;;;;4975462;28;19932;-59
2022/06/26 14:28:52;;;;;;;;;;;;;;;;;;4975252;28;19918;-59
2022/06/26 14:31:17;;;;;;;;;;;;;;;;;;4977814;28;19918;-58
2022/06/26 14:33:43;;;;;;;;;;;;;;;;;;4973687;28;19917;-58
2022/06/26 14:36:11;;;;;;;;;;;;;;;;;;4956699;28;20377;-59
2022/06/26 14:38:39;;;;;;;;;;;;;;;;;;4970387;28;19987;-59
2022/06/26 14:41:04;;;;;;;;;;;;;;;;;;4977631;28;19929;-59
2022/06/26 14:43:29;;;;;;;;;;;;;;;;;;4975149;28;19964;-59
2022/06/26 14:45:55;;;;;;;;;;;;;;;;;;4978392;28;19925;-59
2022/06/26 14:48:20;;;;;;;;;;;;;;;;;;4973780;28;19964;-58
2022/06/26 14:50:46;;;;;;;;;;;;;;;;;;4974826;28;19957;-58
2022/06/26 14:53:13;;;;;;;;;;;;;;;;;;4960231;28;19988;-59
2022/06/26 14:55:42;;;;;;;;;;;;;;;;;;4984987;28;19925;-59
2022/06/26 14:58:11;;;;;;;;;;;;;;;;;;4970817;28;19922;-60
2022/06/26 15:00:36;;;;;;;;;;;;;;;;;;4974869;28;19929;-60
2022/06/26 15:03:01;;;;;;;;;;;;;;;;;;4982209;28;19922;-60
2022/06/26 15:05:27;;;;;;;;;;;;;;;;;;4976917;28;19952;-59
2022/06/26 15:07:52;;;;;;;;;;;;;;;;;;4972910;28;20166;-58
2022/06/26 15:10:17;;;;;;;;;;;;;;;;;;4975703;28;19925;-58
2022/06/26 15:12:43;;;;;;;;;;;;;;;;;;4974374;28;19928;-58
2022/06/26 15:15:11;;;;;;;;;;;;;;;;;;4976992;28;20399;-61
2022/06/26 15:17:36;;;;;;;;;;;;;;;;;;4975960;28;20281;-59
2022/06/26 15:20:06;;;;;;;;;;;;;;;;;;4977357;28;19972;-59
2022/06/26 15:22:34;;;;;;;;;;;;;;;;;;4976643;28;20496;-58
2022/06/26 15:25:05;;;;;;;;;;;;;;;;;;4976035;28;19930;-58
2022/06/26 15:27:32;;;;;;;;;;;;;;;;;;4974671;28;19921;-58
2022/06/26 15:29:58;;;;;;;;;;;;;;;;;;4973887;28;19953;-59
2022/06/26 15:32:23;;;;;;;;;;;;;;;;;;4972739;28;20056;-56
2022/06/26 15:34:48;;;;;;;;;;;;;;;;;;4969240;28;20016;-58
2022/06/26 15:37:13;;;;;;;;;;;;;;;;;;4975648;28;20040;-59
2022/06/26 15:39:39;;;;;;;;;;;;;;;;;;4975416;28;19963;-59
2022/06/26 15:42:04;;;;;;;;;;;;;;;;;;4971111;28;19921;-59
2022/06/26 15:44:29;;;;;;;;;;;;;;;;;;4974690;28;19944;-60
2022/06/26 15:46:55;;;;;;;;;;;;;;;;;;4964308;28;19929;-59
2022/06/26 15:49:20;;;;;;;;;;;;;;;;;;4970875;28;19928;-60
2022/06/26 15:51:46;;;;;;;;;;;;;;;;;;4975835;28;19995;-59
2022/06/26 15:54:11;;;;;;;;;;;;;;;;;;4971841;28;20377;-60
2022/06/26 15:56:39;;;;;;;;;;;;;;;;;;4960528;28;19929;-60
2022/06/26 15:59:05;;;;;;;;;;;;;;;;;;4974313;28;19921;-58
2022/06/26 16:01:32;;;;;;;;;;;;;;;;;;4972520;28;19969;-59
2022/06/26 16:03:59;;;;;;;;;;;;;;;;;;4968151;28;20005;-58
2022/06/26 16:06:25;;;;;;;;;;;;;;;;;;4969251;28;19925;-59
2022/06/26 16:08:52;;;;;;;;;;;;;;;;;;4969387;28;19926;-59
2022/06/26 16:11:18;;;;;;;;;;;;;;;;;;4970352;28;20705;-59
2022/06/26 16:13:45;;;;;;;;;;;;;;;;;;4974365;28;20755;-58
2022/06/26 16:16:11;;;;;;;;;;;;;;;;;;4975828;28;19926;-58
2022/06/26 16:18:36;;;;;;;;;;;;;;;;;;4975386;28;19928;-59
2022/06/26 16:21:04;;;;;;;;;;;;;;;;;;4973705;28;20306;-59
2022/06/26 16:26:17;;;;;;;;;;;;;;;;;;4976450;28;20590;-59
2022/06/26 16:28:42;;;;;;;;;;;;;;;;;;4973765;28;20588;-58
2022/06/26 16:31:07;;;;;;;;;;;;;;;;;;4968078;28;19964;-59
2022/06/26 16:33:33;;;;;;;;;;;;;;;;;;4959325;28;19925;-59
2022/06/26 16:36:01;;;;;;;;;;;;;;;;;;4971620;28;20487;-58
2022/06/26 16:38:26;;;;;;;;;;;;;;;;;;4975347;28;19929;-59
2022/06/26 16:40:51;;;;;;;;;;;;;;;;;;4973032;28;20566;-60
2022/06/26 16:43:19;;;;;;;;;;;;;;;;;;4972292;28;19921;-60
2022/06/26 16:45:45;;;;;;;;;;;;;;;;;;4944686;28;19933;-59
2022/06/26 16:48:10;;;;;;;;;;;;;;;;;;4928361;28;21692;-60
2022/06/26 16:50:36;;;;;;;;;;;;;;;;;;4948065;28;20370;-59
2022/06/26 16:53:04;;;;;;;;;;;;;;;;;;4944838;28;19926;-60
2022/06/26 16:55:29;;;;;;;;;;;;;;;;;;4952576;28;20009;-58
2022/06/26 16:57:55;;;;;;;;;;;;;;;;;;4942459;28;19922;-58
2022/06/26 17:00:21;;;;;;;;;;;;;;;;;;4946821;28;19918;-59
2022/06/26 17:02:46;;;;;;;;;;;;;;;;;;4944434;28;19926;-59